Terminal Aerodrome Forecast
Issued by NWS Green Bay, WI

Home | Current Version | Previous Version | Graphics & Text | Print | Product List | Glossary On
Versions: 1 2 3 4 5 6 7 8 9 10 11 12 13 14 15 16
000
FTUS43 KGRB 261135
TAFGRB
TAF
KGRB 261135Z 2612/2712 00000KT 5SM BR SCT045 BKN100
      TEMPO 2612/2613 5SM -SHRA BR BKN045
     FM261300 00000KT P6SM BKN090 BKN120
     FM261700 14006KT P6SM BKN090
     FM262200 15006KT P6SM VCSH BKN050 BKN080
     FM270600 VRB02KT P6SM SCT080=

USA.gov is the U.S. government's official web portal to all federal, state and local government web resources and services.